createdAt,value
2018-11-29T00:00:37.728Z,0.83
2018-11-29T00:01:18.296Z,0.78
2018-11-29T00:01:58.869Z,0.78
2018-11-29T00:02:39.424Z,0.78
2018-11-29T00:03:19.982Z,0.78
2018-11-29T00:04:00.546Z,0.84
2018-11-29T00:04:41.103Z,0.77
2018-11-29T00:05:21.692Z,0.83
2018-11-29T00:06:02.288Z,0.77
2018-11-29T00:06:42.848Z,0.81
2018-11-29T00:07:23.401Z,0.81
2018-11-29T00:08:03.963Z,0.8
2018-11-29T00:08:44.525Z,0.78
2018-11-29T00:09:25.087Z,0.78
2018-11-29T00:10:05.642Z,0.8
2018-11-29T00:10:46.203Z,0.78
2018-11-29T00:11:26.756Z,0.78
2018-11-29T00:12:07.315Z,0.76
2018-11-29T00:12:47.869Z,0.76
2018-11-29T00:13:28.427Z,0.73
2018-11-29T00:14:08.987Z,0.77
2018-11-29T00:14:49.550Z,0.76
2018-11-29T00:15:30.113Z,0.77
2018-11-29T00:16:10.669Z,0.74
2018-11-29T00:16:51.250Z,0.78
2018-11-29T00:17:31.813Z,0.8
2018-11-29T00:18:12.389Z,0.77
2018-11-29T00:18:52.950Z,0.78
2018-11-29T00:19:33.516Z,0.73
2018-11-29T00:20:14.068Z,0.77
2018-11-29T00:20:54.631Z,0.8
2018-11-29T00:21:35.190Z,0.76
2018-11-29T00:22:15.744Z,0.73
2018-11-29T00:22:56.300Z,0.74
2018-11-29T00:23:36.862Z,0.74
2018-11-29T00:24:17.450Z,0.63
2018-11-29T00:24:58.021Z,0.76
2018-11-29T00:25:38.578Z,0.76
2018-11-29T00:26:19.141Z,0.7
2018-11-29T00:26:59.715Z,0.74
2018-11-29T00:27:40.263Z,0.74
2018-11-29T00:28:20.815Z,0.7
2018-11-29T00:29:01.376Z,0.76
2018-11-29T00:29:41.935Z,0.73
2018-11-29T00:30:22.498Z,0.8
2018-11-29T00:31:03.065Z,0.76
2018-11-29T00:31:43.640Z,0.77
2018-11-29T00:32:24.204Z,0.68
2018-11-29T00:33:04.772Z,0.74
2018-11-29T00:33:45.334Z,0.69
2018-11-29T00:34:25.892Z,0.73
2018-11-29T00:35:06.451Z,0.76
2018-11-29T00:35:47.013Z,0.66
2018-11-29T00:36:27.563Z,0.74
2018-11-29T00:37:08.136Z,0.66
2018-11-29T00:37:48.704Z,0.66
2018-11-29T00:38:29.254Z,0.62
2018-11-29T00:39:09.815Z,0.66
2018-11-29T00:39:50.373Z,0.7
2018-11-29T00:40:30.927Z,0.66
2018-11-29T00:41:11.480Z,0.69
2018-11-29T00:41:52.042Z,0.68
2018-11-29T00:42:32.603Z,0.68
2018-11-29T00:43:13.179Z,0.63
2018-11-29T00:43:53.732Z,0.59
2018-11-29T00:44:34.300Z,0.66
2018-11-29T00:45:14.858Z,0.6
2018-11-29T00:45:55.418Z,0.49
2018-11-29T00:46:35.968Z,0.65
2018-11-29T00:47:16.526Z,0.55
2018-11-29T00:47:57.085Z,0.55
2018-11-29T00:48:37.653Z,0.58
2018-11-29T00:49:18.214Z,0.6
2018-11-29T00:49:58.796Z,0.59
2018-11-29T00:50:39.352Z,0.62
2018-11-29T00:51:19.914Z,0.63
2018-11-29T00:52:00.480Z,0.62
2018-11-29T00:52:41.038Z,0.62
2018-11-29T00:53:21.594Z,0.62
2018-11-29T00:54:02.157Z,0.55
2018-11-29T00:54:42.721Z,0.59
2018-11-29T00:55:23.284Z,0.56
2018-11-29T00:56:03.841Z,0.5
2018-11-29T00:56:44.394Z,0.55
2018-11-29T00:57:24.958Z,0.52
2018-11-29T00:58:05.512Z,0.44
2018-11-29T00:58:46.075Z,0.41
2018-11-29T00:59:26.631Z,0.49
2018-11-29T01:00:07.190Z,0.39
2018-11-29T01:00:47.743Z,0.39
2018-11-29T01:01:28.308Z,0.46
2018-11-29T01:02:08.875Z,0.37
2018-11-29T01:02:49.430Z,0.44
2018-11-29T01:03:29.986Z,0.47
2018-11-29T01:04:10.547Z,0.44
2018-11-29T01:04:51.109Z,0.55
2018-11-29T01:05:31.669Z,0.52
2018-11-29T01:06:12.242Z,0.56
2018-11-29T01:06:52.799Z,0.55
2018-11-29T01:07:33.358Z,0.44
2018-11-29T01:08:13.912Z,0.55
2018-11-29T01:08:54.476Z,0.44
2018-11-29T01:09:35.034Z,0.44
2018-11-29T01:10:15.599Z,0.52
2018-11-29T01:10:56.152Z,0.55
2018-11-29T01:11:36.776Z,0.47
2018-11-29T01:12:17.347Z,0.52
2018-11-29T01:12:57.905Z,0.41
2018-11-29T01:13:38.474Z,0.49
2018-11-29T01:14:19.025Z,0.52
2018-11-29T01:14:59.577Z,0.46
2018-11-29T01:15:40.148Z,0.44
2018-11-29T01:16:20.710Z,0.56
2018-11-29T01:17:01.277Z,0.47
2018-11-29T01:17:41.837Z,0.37
2018-11-29T01:18:22.428Z,0.41
2018-11-29T01:19:02.992Z,0.46
2018-11-29T01:19:43.542Z,0.41
2018-11-29T01:20:24.108Z,0.37
2018-11-29T01:21:04.689Z,0.41
2018-11-29T01:21:45.251Z,0.43
2018-11-29T01:22:25.845Z,0.36
2018-11-29T01:23:06.410Z,0.43
2018-11-29T01:23:46.974Z,0.43
2018-11-29T01:24:27.524Z,0.4
2018-11-29T01:25:08.078Z,0.41
2018-11-29T01:25:48.639Z,0.44
2018-11-29T01:26:29.198Z,0.44
2018-11-29T01:27:09.754Z,0.47
2018-11-29T01:27:50.915Z,0.4
2018-11-29T01:28:31.468Z,0.43
2018-11-29T01:29:12.026Z,0.39
2018-11-29T01:29:52.580Z,0.47
2018-11-29T01:30:33.137Z,0.39
2018-11-29T01:31:13.697Z,0.46
2018-11-29T01:31:54.261Z,0.52
2018-11-29T01:32:34.820Z,0.58
2018-11-29T01:33:15.379Z,0.55
2018-11-29T01:33:55.938Z,0.5
2018-11-29T01:34:36.499Z,0.49
2018-11-29T01:35:17.063Z,0.5
2018-11-29T01:35:57.619Z,0.55
2018-11-29T01:36:38.180Z,0.5
2018-11-29T01:37:18.734Z,0.52
2018-11-29T01:37:59.293Z,0.41
2018-11-29T01:38:39.851Z,0.44
2018-11-29T01:39:20.413Z,0.46
2018-11-29T01:40:00.970Z,0.4
2018-11-29T01:40:41.532Z,0.4
2018-11-29T01:41:22.090Z,0.36
2018-11-29T01:42:02.650Z,0.47
2018-11-29T01:42:43.209Z,0.4
2018-11-29T01:43:23.771Z,0.43
2018-11-29T01:44:04.328Z,0.41
2018-11-29T01:44:44.882Z,0.43
2018-11-29T01:45:25.445Z,0.37
2018-11-29T01:46:06.001Z,0.39
2018-11-29T01:46:46.558Z,0.29
2018-11-29T01:47:27.128Z,0.36
2018-11-29T01:48:07.691Z,0.32
2018-11-29T01:48:48.243Z,0.32
2018-11-29T01:49:28.796Z,0.29
2018-11-29T01:50:09.356Z,0.28
2018-11-29T01:50:49.917Z,0.26
2018-11-29T01:51:30.471Z,0.25
2018-11-29T01:52:11.062Z,0.25
2018-11-29T01:52:51.615Z,0.25
2018-11-29T01:53:32.174Z,0.36
2018-11-29T01:54:12.725Z,0.39
2018-11-29T01:54:53.318Z,0.36
2018-11-29T01:55:33.873Z,0.32
2018-11-29T01:56:14.426Z,0.37
2018-11-29T01:56:54.989Z,0.32
2018-11-29T01:57:35.538Z,0.29
2018-11-29T01:58:16.092Z,0.32
2018-11-29T01:58:56.649Z,0.39
2018-11-29T01:59:37.217Z,0.36
2018-11-29T02:00:17.776Z,0.34
2018-11-29T02:00:58.351Z,0.37
2018-11-29T02:01:38.912Z,0.46
2018-11-29T02:02:19.480Z,0.37
2018-11-29T02:03:00.036Z,0.32
2018-11-29T02:03:40.594Z,0.41
2018-11-29T02:04:21.140Z,0.31
2018-11-29T02:05:01.704Z,0.4
2018-11-29T02:05:42.256Z,0.34
2018-11-29T02:06:22.827Z,0.36
2018-11-29T02:07:03.398Z,0.36
2018-11-29T02:07:43.945Z,0.34
2018-11-29T02:08:24.516Z,0.29
2018-11-29T02:09:05.074Z,0.32
2018-11-29T02:09:45.625Z,0.32
2018-11-29T02:10:26.203Z,0.22
2018-11-29T02:11:06.779Z,0.31
2018-11-29T02:11:47.319Z,0.31
2018-11-29T02:12:27.864Z,0.34
2018-11-29T02:13:08.423Z,0.23
2018-11-29T02:13:49.045Z,0.34
2018-11-29T02:14:29.835Z,0.29
2018-11-29T02:15:10.391Z,0.26
2018-11-29T02:15:50.939Z,0.36
2018-11-29T02:16:31.497Z,0.23
2018-11-29T02:17:12.059Z,0.32
2018-11-29T02:17:52.666Z,0.28
2018-11-29T02:18:33.222Z,0.32
2018-11-29T02:19:13.781Z,0.28
2018-11-29T02:19:54.345Z,0.29
2018-11-29T02:20:34.905Z,0.19
2018-11-29T02:21:15.456Z,0.26
2018-11-29T02:21:55.996Z,0.23
2018-11-29T02:22:36.548Z,0.29
2018-11-29T02:23:17.125Z,0.23
2018-11-29T02:23:57.698Z,0.22
2018-11-29T02:24:38.270Z,0.28
2018-11-29T02:25:18.822Z,0.28
2018-11-29T02:25:59.371Z,0.23
2018-11-29T02:26:39.919Z,0.28
2018-11-29T02:27:20.477Z,0.23
2018-11-29T02:28:01.052Z,0.31
2018-11-29T02:28:41.624Z,0.25
2018-11-29T02:29:22.181Z,0.32
2018-11-29T02:30:02.791Z,0.32
2018-11-29T02:30:43.343Z,0.26
2018-11-29T02:31:23.894Z,0.26
2018-11-29T02:32:04.531Z,0.32
2018-11-29T02:32:45.080Z,0.22
2018-11-29T02:33:25.633Z,0.25
2018-11-29T02:34:06.194Z,0.25
2018-11-29T02:34:46.754Z,0.26
2018-11-29T02:35:27.356Z,0.25
2018-11-29T02:36:07.914Z,0.23
2018-11-29T02:36:48.487Z,0.26
2018-11-29T02:37:29.033Z,0.25
2018-11-29T02:38:09.598Z,0.26
2018-11-29T02:38:50.157Z,0.21
2018-11-29T02:39:30.716Z,0.21
2018-11-29T02:40:11.271Z,0.26
2018-11-29T02:40:51.858Z,0.26
2018-11-29T02:41:32.442Z,0.23
2018-11-29T02:42:12.993Z,0.28
2018-11-29T02:42:53.570Z,0.19
2018-11-29T02:43:34.123Z,0.28
2018-11-29T02:44:14.678Z,0.28
2018-11-29T02:44:55.227Z,0.23
2018-11-29T02:45:35.797Z,0.34
2018-11-29T02:46:16.354Z,0.34
2018-11-29T02:46:56.907Z,0.32
2018-11-29T02:47:37.452Z,0.34
2018-11-29T02:48:18.000Z,0.37
2018-11-29T02:48:58.577Z,0.29
2018-11-29T02:49:39.123Z,0.31
2018-11-29T02:50:19.682Z,0.32
2018-11-29T02:51:00.248Z,0.37
2018-11-29T02:51:40.811Z,0.37
2018-11-29T02:52:21.373Z,0.36
2018-11-29T02:53:01.931Z,0.32
2018-11-29T02:53:42.502Z,0.29
2018-11-29T02:54:23.058Z,0.31
2018-11-29T02:55:03.619Z,0.37
2018-11-29T02:55:44.187Z,0.36
2018-11-29T02:56:24.740Z,0.32
2018-11-29T02:57:05.288Z,0.44
2018-11-29T02:57:45.873Z,0.34
2018-11-29T02:58:26.426Z,0.34
2018-11-29T02:59:07.011Z,0.34
2018-11-29T02:59:47.579Z,0.41
2018-11-29T03:00:28.146Z,0.39
2018-11-29T03:01:08.697Z,0.41
2018-11-29T03:01:49.246Z,0.41
2018-11-29T03:02:29.820Z,0.41
2018-11-29T03:03:10.379Z,0.39
2018-11-29T03:03:50.926Z,0.44
2018-11-29T03:04:31.491Z,0.34
2018-11-29T03:05:12.049Z,0.43
2018-11-29T03:05:52.623Z,0.32
2018-11-29T03:06:33.208Z,0.29
2018-11-29T03:07:13.783Z,0.36
2018-11-29T03:07:54.331Z,0.34
2018-11-29T03:08:34.895Z,0.4
2018-11-29T03:09:15.430Z,0.29
2018-11-29T03:09:55.984Z,0.37
2018-11-29T03:10:36.531Z,0.37
2018-11-29T03:11:17.091Z,0.29
2018-11-29T03:11:57.645Z,0.36
2018-11-29T03:12:38.200Z,0.36
2018-11-29T03:13:18.763Z,0.34
2018-11-29T03:13:59.316Z,0.26
2018-11-29T03:14:39.860Z,0.34
2018-11-29T03:15:20.425Z,0.23
2018-11-29T03:16:00.984Z,0.26
2018-11-29T03:16:41.548Z,0.31
2018-11-29T03:17:22.117Z,0.36
2018-11-29T03:18:02.700Z,0.37
2018-11-29T03:18:43.245Z,0.39
2018-11-29T03:19:23.870Z,0.31
2018-11-29T03:20:04.387Z,0.43
2018-11-29T03:20:44.940Z,0.43
2018-11-29T03:21:25.504Z,0.43
2018-11-29T03:22:06.074Z,0.4
2018-11-29T03:22:46.628Z,0.4
2018-11-29T03:23:27.196Z,0.52
2018-11-29T03:24:07.744Z,0.4
2018-11-29T03:24:48.304Z,0.39
2018-11-29T03:25:28.848Z,0.43
2018-11-29T03:26:09.395Z,0.47
2018-11-29T03:26:49.955Z,0.44
2018-11-29T03:27:30.512Z,0.37
2018-11-29T03:28:11.057Z,0.47
2018-11-29T03:28:51.719Z,0.46
2018-11-29T03:29:32.269Z,0.36
2018-11-29T03:30:12.828Z,0.32
2018-11-29T03:30:53.383Z,0.37
2018-11-29T03:31:33.943Z,0.37
2018-11-29T03:32:14.499Z,0.34
2018-11-29T03:32:55.077Z,0.39
2018-11-29T03:33:35.626Z,0.34
2018-11-29T03:34:16.219Z,0.4
2018-11-29T03:34:56.807Z,0.29
2018-11-29T03:35:37.382Z,0.37
2018-11-29T03:36:17.956Z,0.32
2018-11-29T03:36:58.514Z,0.29
2018-11-29T03:37:39.076Z,0.32
2018-11-29T03:38:19.649Z,0.29
2018-11-29T03:39:00.199Z,0.29
2018-11-29T03:39:40.767Z,0.31
2018-11-29T03:40:21.324Z,0.25
2018-11-29T03:41:01.874Z,0.36
2018-11-29T03:41:42.417Z,0.22
2018-11-29T03:42:23.002Z,0.29
2018-11-29T03:43:03.569Z,0.26
2018-11-29T03:43:44.126Z,0.21
2018-11-29T03:44:24.686Z,0.22
2018-11-29T03:45:05.237Z,0.29
2018-11-29T03:45:45.814Z,0.25
2018-11-29T03:46:26.374Z,0.26
2018-11-29T03:47:06.936Z,0.25
2018-11-29T03:47:47.506Z,0.31
2018-11-29T03:48:28.063Z,0.25
2018-11-29T03:49:08.633Z,0.22
2018-11-29T03:49:49.210Z,0.23
2018-11-29T03:50:29.759Z,0.32
2018-11-29T03:51:10.321Z,0.37
2018-11-29T03:51:50.879Z,0.32
2018-11-29T03:52:31.441Z,0.43
2018-11-29T03:53:11.992Z,0.32
2018-11-29T03:53:52.579Z,0.37
2018-11-29T03:54:33.159Z,0.29
2018-11-29T03:55:13.735Z,0.31
2018-11-29T03:55:54.281Z,0.26
2018-11-29T03:56:34.846Z,0.23
2018-11-29T03:57:15.408Z,0.23
2018-11-29T03:57:55.950Z,0.22
2018-11-29T03:58:36.506Z,0.23
2018-11-29T03:59:17.071Z,0.21
2018-11-29T03:59:57.682Z,0.22
2018-11-29T04:00:38.320Z,0.29
2018-11-29T04:01:18.907Z,0.25
2018-11-29T04:01:59.481Z,0.25
2018-11-29T04:02:40.026Z,0.25
2018-11-29T04:03:20.603Z,0.25
2018-11-29T04:04:01.154Z,0.26
2018-11-29T04:04:41.713Z,0.23
2018-11-29T04:05:22.259Z,0.29
2018-11-29T04:06:02.818Z,0.32
2018-11-29T04:06:43.377Z,0.22
2018-11-29T04:07:24.054Z,0.23
2018-11-29T04:08:04.599Z,0.29
2018-11-29T04:08:45.199Z,0.26
2018-11-29T04:09:25.773Z,0.19
2018-11-29T04:10:06.353Z,0.22
2018-11-29T04:10:46.918Z,0.26
2018-11-29T04:11:27.477Z,0.26
2018-11-29T04:12:08.044Z,0.22
2018-11-29T04:12:48.612Z,0.28
2018-11-29T04:13:29.172Z,0.28
2018-11-29T04:14:09.726Z,0.32
2018-11-29T04:14:50.600Z,0.32
2018-11-29T04:15:31.171Z,0.29
2018-11-29T04:16:11.706Z,0.4
2018-11-29T04:16:52.267Z,0.34
2018-11-29T04:17:32.849Z,0.37
2018-11-29T04:18:13.403Z,0.37
2018-11-29T04:18:53.974Z,0.41
2018-11-29T04:19:34.577Z,0.34
2018-11-29T04:20:15.168Z,0.34
2018-11-29T04:20:55.731Z,0.34
2018-11-29T04:21:36.298Z,0.36
2018-11-29T04:22:16.845Z,0.34
2018-11-29T04:22:57.400Z,0.49
2018-11-29T04:23:37.969Z,0.41
2018-11-29T04:24:18.538Z,0.41
2018-11-29T04:24:59.099Z,0.43
2018-11-29T04:25:39.683Z,0.39
2018-11-29T04:26:20.229Z,0.43
2018-11-29T04:27:00.780Z,0.44
2018-11-29T04:27:41.339Z,0.44
2018-11-29T04:28:21.895Z,0.39
2018-11-29T04:29:02.446Z,0.44
2018-11-29T04:29:43.009Z,0.41
2018-11-29T04:30:23.631Z,0.43
2018-11-29T04:31:04.189Z,0.46
2018-11-29T04:31:44.743Z,0.43
2018-11-29T04:32:25.295Z,0.44
2018-11-29T04:33:05.848Z,0.4
2018-11-29T04:33:46.418Z,0.44
2018-11-29T04:34:26.965Z,0.47
2018-11-29T04:35:07.522Z,0.41
2018-11-29T04:35:48.073Z,0.44
2018-11-29T04:36:28.625Z,0.4
2018-11-29T04:37:09.191Z,0.43
2018-11-29T04:37:49.737Z,0.4
2018-11-29T04:38:30.290Z,0.55
2018-11-29T04:39:10.874Z,0.43
2018-11-29T04:39:51.419Z,0.4
2018-11-29T04:40:31.996Z,0.43
2018-11-29T04:41:12.547Z,0.4
2018-11-29T04:41:53.109Z,0.4
2018-11-29T04:42:33.732Z,0.46
2018-11-29T04:43:14.289Z,0.41
2018-11-29T04:43:54.846Z,0.39
2018-11-29T04:44:35.390Z,0.4
2018-11-29T04:45:15.971Z,0.43
2018-11-29T04:45:56.513Z,0.44
2018-11-29T04:46:37.088Z,0.41
2018-11-29T04:47:17.639Z,0.43
2018-11-29T04:47:58.200Z,0.43
2018-11-29T04:48:38.785Z,0.44
2018-11-29T04:49:19.343Z,0.36
2018-11-29T04:49:59.906Z,0.41
2018-11-29T04:50:40.475Z,0.4
2018-11-29T04:51:21.049Z,0.41
2018-11-29T04:52:01.601Z,0.41
2018-11-29T04:52:42.169Z,0.43
2018-11-29T04:53:22.733Z,0.43
2018-11-29T04:54:03.295Z,0.41
2018-11-29T04:54:43.849Z,0.44
2018-11-29T04:55:24.423Z,0.44
2018-11-29T04:56:04.979Z,0.43
2018-11-29T04:56:45.555Z,0.44
2018-11-29T04:57:26.106Z,0.49
2018-11-29T04:58:06.653Z,0.44
2018-11-29T04:58:47.200Z,0.44
2018-11-29T04:59:27.801Z,0.32
2018-11-29T05:00:08.355Z,0.31
2018-11-29T05:00:48.911Z,0.34
2018-11-29T05:01:29.456Z,0.34
2018-11-29T05:02:10.015Z,0.37
2018-11-29T05:02:50.569Z,0.37
2018-11-29T05:03:31.135Z,0.37
2018-11-29T05:04:11.701Z,0.4
2018-11-29T05:04:52.278Z,0.41
2018-11-29T05:05:32.852Z,0.41
2018-11-29T05:06:13.415Z,0.46
2018-11-29T05:06:53.978Z,0.41
2018-11-29T05:07:34.704Z,0.41
2018-11-29T05:08:15.268Z,0.43
2018-11-29T05:08:55.923Z,0.4
2018-11-29T05:09:36.556Z,0.46
2018-11-29T05:10:17.069Z,0.41
2018-11-29T05:10:57.624Z,0.47
2018-11-29T05:11:38.182Z,0.47
2018-11-29T05:12:18.737Z,0.46
2018-11-29T05:12:59.272Z,0.37
2018-11-29T05:13:39.832Z,0.43
2018-11-29T05:14:20.405Z,0.43
2018-11-29T05:15:00.968Z,0.4
2018-11-29T05:15:41.520Z,0.36
2018-11-29T05:16:22.064Z,0.43
2018-11-29T05:17:02.650Z,0.44
2018-11-29T05:17:43.229Z,0.4
2018-11-29T05:18:23.783Z,0.43
2018-11-29T05:19:04.336Z,0.34
2018-11-29T05:19:44.915Z,0.4
2018-11-29T05:20:25.469Z,0.39
2018-11-29T05:21:06.025Z,0.32
2018-11-29T05:21:46.579Z,0.36
2018-11-29T05:22:27.294Z,0.34
2018-11-29T05:23:07.860Z,0.32
2018-11-29T05:23:48.416Z,0.31
2018-11-29T05:24:28.979Z,0.41
2018-11-29T05:25:09.525Z,0.36
2018-11-29T05:25:50.103Z,0.34
2018-11-29T05:26:30.849Z,0.32
2018-11-29T05:27:11.426Z,0.39
2018-11-29T05:27:52.139Z,0.34
2018-11-29T05:28:32.692Z,0.32
2018-11-29T05:29:13.255Z,0.29
2018-11-29T05:29:53.822Z,0.37
2018-11-29T05:30:34.379Z,0.31
2018-11-29T05:31:15.017Z,0.29
2018-11-29T05:31:55.571Z,0.31
2018-11-29T05:32:36.130Z,0.34
2018-11-29T05:33:16.692Z,0.43
2018-11-29T05:33:57.248Z,0.41
2018-11-29T05:34:37.813Z,0.49
2018-11-29T05:35:18.368Z,0.44
2018-11-29T05:35:58.916Z,0.46
2018-11-29T05:36:39.479Z,0.44
2018-11-29T05:37:20.037Z,0.43
2018-11-29T05:38:00.595Z,0.4
2018-11-29T05:38:41.159Z,0.4
2018-11-29T05:39:21.709Z,0.34
2018-11-29T05:40:02.263Z,0.43
2018-11-29T05:40:42.813Z,0.4
2018-11-29T05:41:23.388Z,0.41
2018-11-29T05:42:03.972Z,0.49
2018-11-29T05:42:44.543Z,0.41
2018-11-29T05:43:25.102Z,0.37
2018-11-29T05:44:05.673Z,0.44
2018-11-29T05:44:46.230Z,0.46
2018-11-29T05:45:26.788Z,0.4
2018-11-29T05:46:07.333Z,0.36
2018-11-29T05:46:47.885Z,0.41
2018-11-29T05:47:28.474Z,0.4
2018-11-29T05:48:09.038Z,0.34
2018-11-29T05:48:49.606Z,0.37
2018-11-29T05:49:30.161Z,0.39
2018-11-29T05:50:10.721Z,0.41
2018-11-29T05:50:51.292Z,0.52
2018-11-29T05:51:31.876Z,0.44
2018-11-29T05:52:12.465Z,0.4
2018-11-29T05:52:53.018Z,0.41
2018-11-29T05:53:33.586Z,0.4
2018-11-29T05:54:14.148Z,0.41
2018-11-29T05:54:54.709Z,0.49
2018-11-29T05:55:35.276Z,0.39
2018-11-29T05:56:15.847Z,0.31
2018-11-29T05:56:56.398Z,0.32
2018-11-29T05:57:36.968Z,0.32
2018-11-29T05:58:17.538Z,0.32
2018-11-29T05:58:58.094Z,0.39
2018-11-29T05:59:38.655Z,0.36
2018-11-29T06:00:19.227Z,0.32
2018-11-29T06:00:59.779Z,0.34
2018-11-29T06:01:40.337Z,0.39
2018-11-29T06:02:20.908Z,0.43
2018-11-29T06:03:01.479Z,0.41
2018-11-29T06:03:42.042Z,0.56
2018-11-29T06:04:22.602Z,0.43
2018-11-29T06:05:03.158Z,0.44
2018-11-29T06:05:43.710Z,0.46
2018-11-29T06:06:24.262Z,0.43
2018-11-29T06:07:04.841Z,0.4
2018-11-29T06:07:45.396Z,0.4
2018-11-29T06:08:25.949Z,0.44
2018-11-29T06:09:06.498Z,0.41
2018-11-29T06:09:47.060Z,0.37
2018-11-29T06:10:27.609Z,0.55
2018-11-29T06:11:08.165Z,0.41
2018-11-29T06:11:48.720Z,0.41
2018-11-29T06:12:29.293Z,0.43
2018-11-29T06:13:09.875Z,0.41
2018-11-29T06:13:50.446Z,0.41
2018-11-29T06:14:31.241Z,0.39
2018-11-29T06:15:12.053Z,0.41
2018-11-29T06:15:52.615Z,0.41
2018-11-29T06:16:33.189Z,0.44
2018-11-29T06:17:13.737Z,0.49
2018-11-29T06:17:54.303Z,0.44
2018-11-29T06:18:34.850Z,0.43
2018-11-29T06:19:15.439Z,0.4
2018-11-29T06:19:55.992Z,0.41
2018-11-29T06:20:36.560Z,0.39
2018-11-29T06:21:17.146Z,0.34
2018-11-29T06:21:57.693Z,0.44
2018-11-29T06:22:38.263Z,0.4
2018-11-29T06:23:18.823Z,0.43
2018-11-29T06:23:59.386Z,0.36
2018-11-29T06:24:39.949Z,0.28
2018-11-29T06:25:20.536Z,0.32
2018-11-29T06:26:01.053Z,0.36
2018-11-29T06:26:41.616Z,0.29
2018-11-29T06:27:22.182Z,0.31
2018-11-29T06:28:02.740Z,0.31
2018-11-29T06:28:43.316Z,0.31
2018-11-29T06:29:23.884Z,0.36
2018-11-29T06:30:04.438Z,0.28
2018-11-29T06:30:44.995Z,0.41
2018-11-29T06:31:25.546Z,0.52
2018-11-29T06:32:06.089Z,0.66
2018-11-29T06:32:46.646Z,0.86
2018-11-29T06:33:27.207Z,0.98
2018-11-29T06:34:07.791Z,1.19
2018-11-29T06:34:48.353Z,1.31
2018-11-29T06:35:28.911Z,1.38
2018-11-29T06:36:09.479Z,1.49
2018-11-29T06:36:50.046Z,1.48
2018-11-29T06:37:31.703Z,1.55
2018-11-29T06:38:12.268Z,1.58
2018-11-29T06:38:52.828Z,1.55
2018-11-29T06:39:33.438Z,1.5
2018-11-29T06:40:13.994Z,1.58
2018-11-29T06:40:54.535Z,1.59
2018-11-29T06:41:35.094Z,1.76
2018-11-29T06:42:15.659Z,1.78
2018-11-29T06:42:56.198Z,1.85
2018-11-29T06:43:36.817Z,1.89
2018-11-29T06:44:17.370Z,1.94
2018-11-29T06:44:57.912Z,1.92
2018-11-29T06:45:38.617Z,1.92
2018-11-29T06:46:19.193Z,1.94
2018-11-29T06:46:59.777Z,1.95
2018-11-29T06:47:40.314Z,2
2018-11-29T06:48:20.871Z,2.06
2018-11-29T06:49:01.526Z,1.94
2018-11-29T06:49:42.143Z,1.91
2018-11-29T06:50:22.688Z,1.91
2018-11-29T06:51:03.253Z,1.94
2018-11-29T06:51:43.810Z,1.94
2018-11-29T06:52:24.370Z,1.94
2018-11-29T06:53:04.929Z,1.99
2018-11-29T06:53:45.486Z,2.06
2018-11-29T06:54:26.056Z,1.81
2018-11-29T06:55:06.613Z,1.74
2018-11-29T06:55:47.182Z,1.58
2018-11-29T06:56:27.840Z,1.48
2018-11-29T06:57:08.343Z,1.35
2018-11-29T06:57:48.907Z,1.28
2018-11-29T06:58:29.474Z,1.17
2018-11-29T06:59:10.027Z,1.22
2018-11-29T06:59:50.577Z,0.99
2018-11-29T07:00:31.171Z,0.99
2018-11-29T07:01:11.729Z,1.02
2018-11-29T07:01:52.311Z,0.94
2018-11-29T07:02:32.861Z,0.88
2018-11-29T07:03:13.421Z,0.83
2018-11-29T07:03:53.977Z,0.81
2018-11-29T07:04:34.614Z,0.74
2018-11-29T07:05:15.141Z,0.77
2018-11-29T07:05:55.863Z,0.65
2018-11-29T07:06:36.468Z,0.69
2018-11-29T07:07:17.992Z,0.68
2018-11-29T07:09:56.371Z,0.52
2018-11-29T07:10:37.002Z,0.52
2018-11-29T07:11:17.599Z,0.44
2018-11-29T07:11:58.185Z,0.56
2018-11-29T07:12:38.742Z,0.52
2018-11-29T07:13:19.290Z,0.5
2018-11-29T07:13:59.833Z,0.62
2018-11-29T07:14:40.389Z,0.55
2018-11-29T07:15:20.974Z,0.49
2018-11-29T07:16:01.535Z,0.46
2018-11-29T07:16:42.103Z,0.52
2018-11-29T07:17:22.654Z,0.44
2018-11-29T07:18:03.216Z,0.58
2018-11-29T07:18:43.789Z,0.52
2018-11-29T07:19:24.342Z,0.62
2018-11-29T07:20:04.949Z,0.59
2018-11-29T07:20:45.506Z,0.52
2018-11-29T07:21:26.098Z,0.56
2018-11-29T07:22:06.685Z,0.55
2018-11-29T07:22:47.247Z,0.55
2018-11-29T07:23:27.793Z,0.59
2018-11-29T07:24:08.371Z,0.55
2018-11-29T07:24:48.905Z,0.5
2018-11-29T07:25:29.466Z,0.52
2018-11-29T07:26:10.040Z,0.56
2018-11-29T07:26:50.597Z,0.47
2018-11-29T07:27:31.156Z,0.39
2018-11-29T07:28:11.714Z,0.46
2018-11-29T07:28:52.294Z,0.39
2018-11-29T07:29:32.892Z,0.39
2018-11-29T07:30:13.456Z,0.41
2018-11-29T07:30:54.044Z,0.41
2018-11-29T07:31:34.605Z,0.47
2018-11-29T07:32:15.152Z,0.4
2018-11-29T07:32:55.705Z,0.44
2018-11-29T07:33:36.279Z,0.47
2018-11-29T07:34:16.984Z,0.44
2018-11-29T07:34:57.553Z,0.44
2018-11-29T07:35:38.108Z,0.41
2018-11-29T07:36:18.667Z,0.43
2018-11-29T07:36:59.243Z,0.4
2018-11-29T07:37:39.789Z,0.47
2018-11-29T07:38:20.342Z,0.41
2018-11-29T07:39:00.915Z,0.52
2018-11-29T07:39:41.490Z,0.49
2018-11-29T07:40:22.040Z,0.55
2018-11-29T07:41:02.624Z,0.47
2018-11-29T07:41:43.182Z,0.4
2018-11-29T07:42:23.764Z,0.46
2018-11-29T07:43:04.296Z,0.43
2018-11-29T07:43:44.883Z,0.37
2018-11-29T07:44:25.439Z,0.41
2018-11-29T07:45:05.988Z,0.56
2018-11-29T07:45:46.535Z,0.55
2018-11-29T07:46:27.108Z,0.52
2018-11-29T07:47:07.674Z,0.55
2018-11-29T07:47:48.230Z,0.59
2018-11-29T07:48:28.777Z,0.59
2018-11-29T07:49:09.335Z,0.59
2018-11-29T07:49:49.935Z,0.63
2018-11-29T07:50:30.482Z,0.65
2018-11-29T07:51:11.046Z,0.6
2018-11-29T07:51:51.636Z,0.69
2018-11-29T07:52:32.256Z,0.69
2018-11-29T07:53:12.829Z,0.66
2018-11-29T07:53:53.400Z,0.66
2018-11-29T07:54:33.990Z,0.73
2018-11-29T07:55:14.564Z,0.69
2018-11-29T07:55:55.114Z,0.66
2018-11-29T07:56:35.672Z,0.66
2018-11-29T07:57:16.232Z,0.68
2018-11-29T07:57:56.787Z,0.69
2018-11-29T07:58:37.322Z,0.65
2018-11-29T07:59:18.022Z,0.69
2018-11-29T07:59:59.215Z,0.74
2018-11-29T08:00:39.792Z,0.66
2018-11-29T08:01:20.444Z,0.62
2018-11-29T08:02:01.119Z,0.69
2018-11-29T08:02:41.678Z,0.56
2018-11-29T08:03:22.258Z,0.63
2018-11-29T08:04:02.857Z,0.62
2018-11-29T08:04:43.441Z,0.62
2018-11-29T08:05:24.029Z,0.49
2018-11-29T08:06:04.574Z,0.59
2018-11-29T08:06:45.246Z,0.55
2018-11-29T08:07:26.198Z,0.56
2018-11-29T08:08:08.038Z,0.52
2018-11-29T08:08:47.628Z,0.5
2018-11-29T08:09:28.257Z,0.62
2018-11-29T08:10:08.878Z,0.6
2018-11-29T08:10:49.451Z,0.62
2018-11-29T08:11:30.036Z,0.65
2018-11-29T08:12:10.586Z,0.56
2018-11-29T08:12:51.281Z,0.62
2018-11-29T08:13:31.836Z,0.5
2018-11-29T08:14:12.409Z,0.56
2018-11-29T08:14:52.977Z,0.65
2018-11-29T08:15:33.544Z,0.66
2018-11-29T08:16:14.113Z,0.68
2018-11-29T08:16:54.665Z,0.62
2018-11-29T08:17:35.283Z,0.69
2018-11-29T08:18:15.857Z,0.66
2018-11-29T08:18:56.417Z,0.65
2018-11-29T08:19:36.969Z,0.69
2018-11-29T08:20:17.510Z,0.69
2018-11-29T08:20:58.039Z,0.66
2018-11-29T08:21:38.606Z,0.69
2018-11-29T08:22:19.715Z,0.68
2018-11-29T08:22:59.754Z,0.68
2018-11-29T08:23:40.337Z,0.68
2018-11-29T08:24:20.924Z,0.62
2018-11-29T08:25:01.626Z,0.6
2018-11-29T08:25:42.188Z,0.66
2018-11-29T08:26:22.747Z,0.68
2018-11-29T08:27:03.322Z,0.65
2018-11-29T08:27:43.909Z,0.66
2018-11-29T08:28:24.463Z,0.69
2018-11-29T08:29:05.046Z,0.69
2018-11-29T08:29:45.614Z,0.78
2018-11-29T08:30:26.185Z,0.81
2018-11-29T08:31:06.737Z,0.81
2018-11-29T08:31:47.313Z,0.8
2018-11-29T08:32:27.865Z,0.83
2018-11-29T08:33:08.417Z,0.83
2018-11-29T08:33:49.005Z,0.87
2018-11-29T08:34:29.593Z,0.94
2018-11-29T08:35:10.207Z,0.92
2018-11-29T08:35:50.740Z,1.02
2018-11-29T08:36:31.306Z,0.98
2018-11-29T08:37:11.860Z,0.99
2018-11-29T08:37:52.471Z,1.22
2018-11-29T08:38:33.016Z,1.19
2018-11-29T08:39:13.575Z,1.28
2018-11-29T08:39:54.197Z,1.3
2018-11-29T08:40:34.761Z,1.49
2018-11-29T08:41:15.324Z,1.49
2018-11-29T08:41:55.876Z,1.59
2018-11-29T08:42:36.463Z,1.76
2018-11-29T08:43:17.036Z,1.94
2018-11-29T08:43:57.592Z,2.08
2018-11-29T08:44:38.191Z,2.11
2018-11-29T08:45:18.740Z,2.2
2018-11-29T08:45:59.420Z,2.33
2018-11-29T08:46:39.972Z,2.43
2018-11-29T08:47:20.523Z,2.68
2018-11-29T08:48:01.114Z,2.85
2018-11-29T08:48:41.666Z,2.89
2018-11-29T08:49:22.224Z,3.08
2018-11-29T08:50:02.788Z,3.11
2018-11-29T08:50:43.360Z,3.14
2018-11-29T08:51:23.908Z,3.26
2018-11-29T08:52:04.478Z,3.41
2018-11-29T08:52:45.078Z,3.48
2018-11-29T08:53:25.645Z,3.55
2018-11-29T08:54:06.281Z,3.53
2018-11-29T08:54:46.941Z,3.62
2018-11-29T08:55:27.577Z,3.59
2018-11-29T08:56:08.219Z,3.65
2018-11-29T08:56:48.773Z,3.5
2018-11-29T08:57:29.329Z,3.56
2018-11-29T08:58:09.872Z,3.51
2018-11-29T08:58:50.459Z,3.53
2018-11-29T08:59:31.239Z,3.5
2018-11-29T09:00:11.868Z,3.58
2018-11-29T09:00:52.444Z,3.62
2018-11-29T09:01:32.994Z,3.65
2018-11-29T09:02:13.558Z,3.55
2018-11-29T09:02:54.135Z,3.53
2018-11-29T09:03:34.710Z,3.56